Alcorn State University, Mississippi
Current Conditions -  °F | °C
As of 7:15 PM on Saturday 22 Nov 2014 (Local Time) from KHEZ Reporting Station
Clear Clear  
Wind Chill: 63°   Ceiling: Unl
Heat Index: 63°   Visibility: 10mi
Dew Point: 54°   Wind: 12mph
Humidity: 72%   Direction: 120°ESE
Pressure: 29.99"   Gusts: NA
Location:  31.8192°N, 91.1912°W
Report Text: KHEZ 230115Z AUTO 12010KT 10SM CLR 17/12 A2999 RMK AO1
Loading
Personal Weather Stations






























Interactive Weather Map New forecast layout! Learn more

10-Day Weather Forecast

Advertisements
Track Severe Weather on mobile